Time;durP1;ratioP1;P1;durP2;ratioP2;P2;SDS_P1;SDS_P2;PMS_P1;PMS_P2;Temp;Humidity;BMP_temperature;BMP_pressure;BME280_temperature;BME280_humidity;BME280_pressure;Samples;Min_cycle;Max_cycle;Signal;HPM_P1;HPM_P2
2023/04/01 00:01:18;;;;;;;1999.90;999.90;;;11.40;99.90;;;;;;5083456;28;20468;-69
2023/04/01 00:03:46;;;;;;;1999.90;999.90;;;11.40;99.90;;;;;;5091848;28;20413;-70
2023/04/01 00:06:15;;;;;;;1999.90;999.90;;;11.40;99.90;;;;;;5091815;28;21001;-70
2023/04/01 00:08:41;;;;;;;1999.90;999.90;;;11.50;99.90;;;;;;5082367;28;20480;-70
2023/04/01 00:11:08;;;;;;;1999.90;999.90;;;11.60;99.90;;;;;;5083159;28;20426;-71
2023/04/01 00:13:35;;;;;;;1999.90;999.90;;;11.40;99.90;;;;;;5091506;28;20414;-70
2023/04/01 00:16:02;;;;;;;1999.90;999.90;;;11.30;99.90;;;;;;5091673;28;20414;-71
2023/04/01 00:18:31;;;;;;;1999.90;999.90;;;11.40;99.90;;;;;;5082650;28;20461;-71
2023/04/01 00:20:57;;;;;;;1999.90;999.90;;;11.30;99.90;;;;;;5083081;28;20438;-71
2023/04/01 00:23:24;;;;;;;1999.90;999.90;;;11.30;99.90;;;;;;5091341;28;20440;-70
2023/04/01 00:25:51;;;;;;;1999.90;999.90;;;11.20;99.90;;;;;;5091277;28;20410;-68
2023/04/01 00:28:19;;;;;;;1999.90;999.90;;;11.20;99.90;;;;;;5082447;28;20848;-70
2023/04/01 00:30:46;;;;;;;1999.90;999.90;;;11.20;99.90;;;;;;5082913;28;20453;-71
2023/04/01 00:33:14;;;;;;;1999.90;999.90;;;11.30;99.90;;;;;;5091423;28;20445;-70
2023/04/01 00:35:42;;;;;;;1999.90;999.90;;;11.30;99.90;;;;;;5091254;28;20425;-70
2023/04/01 00:38:11;;;;;;;1999.90;999.90;;;11.20;99.90;;;;;;5082630;28;20511;-70
2023/04/01 00:40:40;;;;;;;1999.90;999.90;;;11.20;99.90;;;;;;5082536;28;20414;-70
2023/04/01 00:43:13;;;;;;;1999.90;999.90;;;11.20;99.90;;;;;;5091063;28;20448;-67
2023/04/01 00:45:41;;;;;;;1999.90;999.90;;;11.20;99.90;;;;;;5090956;28;20406;-71
2023/04/01 00:48:11;;;;;;;1999.90;999.90;;;11.20;99.90;;;;;;5082882;28;20439;-71
2023/04/01 00:50:41;;;;;;;1999.90;999.90;;;11.20;99.90;;;;;;5082440;28;20487;-70
2023/04/01 00:53:09;;;;;;;1999.90;999.90;;;11.20;99.90;;;;;;5090907;28;20822;-70
2023/04/01 00:55:42;;;;;;;1999.90;999.90;;;11.20;99.90;;;;;;5090998;28;20414;-70
2023/04/01 00:58:13;;;;;;;1999.90;999.90;;;11.30;99.90;;;;;;5083088;28;20432;-70
2023/04/01 01:00:39;;;;;;;1999.90;999.90;;;11.20;99.90;;;;;;5082361;28;20460;-70
2023/04/01 01:03:07;;;;;;;1999.90;999.90;;;11.20;99.90;;;;;;5090756;28;20409;-70
2023/04/01 01:05:43;;;;;;;1999.90;999.90;;;11.20;99.90;;;;;;5090236;28;20409;-70
2023/04/01 01:08:19;;;;;;;1999.90;999.90;;;11.40;99.90;;;;;;5083296;28;20859;-70
2023/04/01 01:10:50;;;;;;;1999.90;999.90;;;11.40;99.90;;;;;;5082244;28;20426;-70
2023/04/01 01:13:22;;;;;;;1999.90;999.90;;;11.40;99.90;;;;;;5090688;28;20410;-71
2023/04/01 01:15:55;;;;;;;1999.90;999.90;;;11.30;99.90;;;;;;5090531;28;20488;-68
2023/04/01 01:18:28;;;;;;;1999.90;999.90;;;11.20;99.90;;;;;;5080287;28;20459;-70
2023/04/01 01:21:33;;;;;;;1999.90;999.90;;;11.20;99.90;;;;;;5077503;28;20409;-67
2023/04/01 01:24:30;;;;;;;1999.90;999.90;;;11.10;99.90;;;;;;5032643;28;20830;-70
2023/04/01 01:27:01;;;;;;;1999.90;999.90;;;11.20;99.90;;;;;;5050562;28;20405;-70
2023/04/01 01:30:09;;;;;;;1999.90;999.90;;;11.10;99.90;;;;;;5077618;28;20997;-70
2023/04/01 01:33:07;;;;;;;1999.90;999.90;;;11.20;99.90;;;;;;5049997;28;20981;-70
2023/04/01 01:35:38;;;;;;;1999.90;999.90;;;10.80;99.90;;;;;;5014164;28;20535;-70
2023/04/01 01:38:08;;;;;;;1999.90;999.90;;;10.90;99.90;;;;;;5054518;28;20423;-70
2023/04/01 01:40:37;;;;;;;1999.90;999.90;;;10.90;99.90;;;;;;5070432;28;20415;-70
2023/04/01 01:43:09;;;;;;;1999.90;999.90;;;10.90;99.90;;;;;;5069946;28;20461;-69
2023/04/01 01:45:40;;;;;;;1999.90;999.90;;;10.80;99.90;;;;;;5070155;28;20430;-70
2023/04/01 01:48:09;;;;;;;1999.90;999.90;;;10.90;99.90;;;;;;5068943;28;20435;-71
2023/04/01 01:50:38;;;;;;;1999.90;999.90;;;10.80;99.90;;;;;;5081712;28;20477;-70
2023/04/01 01:53:06;;;;;;;1999.90;999.90;;;10.70;99.90;;;;;;5090140;28;20873;-71
2023/04/01 01:55:34;;;;;;;1999.90;999.90;;;10.90;99.90;;;;;;5089971;28;20970;-70
2023/04/01 01:58:06;;;;;;;1999.90;999.90;;;10.80;99.90;;;;;;5084693;28;20439;-70
2023/04/01 02:00:34;;;;;;;1999.90;999.90;;;10.90;99.90;;;;;;5070140;28;20419;-70
2023/04/01 02:03:01;;;;;;;1999.90;999.90;;;11.00;99.90;;;;;;5069855;28;20829;-70
2023/04/01 02:05:31;;;;;;;1999.90;999.90;;;10.90;99.90;;;;;;5069929;28;20408;-71
2023/04/01 02:08:06;;;;;;;1999.90;999.90;;;11.10;99.90;;;;;;5067690;28;20524;-70
2023/04/01 02:10:36;;;;;;;1999.90;999.90;;;11.10;99.90;;;;;;5069911;28;20422;-70
2023/04/01 02:13:11;;;;;;;1999.90;999.90;;;11.00;99.90;;;;;;5069767;28;20423;-71
2023/04/01 02:15:43;;;;;;;1999.90;999.90;;;11.10;99.90;;;;;;5069819;28;20498;-70
2023/04/01 02:18:11;;;;;;;1999.90;999.90;;;11.00;99.90;;;;;;5071825;28;20477;-70
2023/04/01 02:20:39;;;;;;;1999.90;999.90;;;11.00;99.90;;;;;;5085245;28;20884;-70
2023/04/01 02:23:10;;;;;;;1999.90;999.90;;;11.00;99.90;;;;;;5093766;28;20414;-70
2023/04/01 02:25:38;;;;;;;1999.90;999.90;;;11.00;99.90;;;;;;5093858;28;20413;-70
2023/04/01 02:28:07;;;;;;;1999.90;999.90;;;11.10;99.90;;;;;;5088879;28;20520;-70
2023/04/01 02:30:37;;;;;;;1999.90;999.90;;;11.00;99.90;;;;;;5073725;28;20415;-70
2023/04/01 02:33:06;;;;;;;1999.90;999.90;;;11.00;99.90;;;;;;5073085;28;20925;-70
2023/04/01 02:35:34;;;;;;;1999.90;999.90;;;11.00;99.90;;;;;;5073360;28;20647;-70
2023/04/01 02:38:02;;;;;;;1999.90;999.90;;;10.90;99.90;;;;;;5072425;28;20525;-70
2023/04/01 02:40:30;;;;;;;1999.90;999.90;;;11.00;99.90;;;;;;5084617;28;20461;-70
2023/04/01 02:42:57;;;;;;;1999.90;999.90;;;11.00;99.90;;;;;;5093430;28;20462;-70
2023/04/01 02:45:23;;;;;;;1999.90;999.90;;;11.00;99.90;;;;;;5093304;28;20415;-70
2023/04/01 02:47:50;;;;;;;1999.90;999.90;;;11.00;99.90;;;;;;5091264;28;20414;-69
2023/04/01 02:50:17;;;;;;;1999.90;999.90;;;11.00;99.90;;;;;;5082861;28;20417;-70
2023/04/01 02:52:43;;;;;;;1999.90;999.90;;;11.10;99.90;;;;;;5093281;28;20455;-70
2023/04/01 02:55:10;;;;;;;1999.90;999.90;;;11.00;99.90;;;;;;5093230;28;20455;-70
2023/04/01 02:57:38;;;;;;;1999.90;999.90;;;11.00;99.90;;;;;;5093080;28;20422;-70
2023/04/01 03:00:10;;;;;;;1999.90;999.90;;;11.10;99.90;;;;;;5080457;28;20431;-71
2023/04/01 03:02:38;;;;;;;1999.90;999.90;;;11.20;99.90;;;;;;5052943;28;20413;-71
2023/04/01 03:05:05;;;;;;;1999.90;999.90;;;11.20;99.90;;;;;;5052844;28;20432;-70
2023/04/01 03:07:32;;;;;;;1999.90;999.90;;;11.40;99.90;;;;;;5052599;28;20413;-70
2023/04/01 03:09:59;;;;;;;1999.90;999.90;;;11.30;99.90;;;;;;5078244;28;20443;-70
2023/04/01 03:12:25;;;;;;;1999.90;999.90;;;11.30;99.90;;;;;;5091901;28;20430;-70
2023/04/01 03:14:53;;;;;;;1999.90;999.90;;;11.10;99.90;;;;;;5092712;28;20463;-70
2023/04/01 03:17:20;;;;;;;1999.90;999.90;;;11.10;99.90;;;;;;5093000;28;20421;-69
2023/04/01 03:19:47;;;;;;;1999.90;999.90;;;11.10;99.90;;;;;;5085402;28;20429;-70
2023/04/01 03:22:13;;;;;;;1999.90;999.90;;;11.20;99.90;;;;;;5084137;28;20479;-70
2023/04/01 03:24:40;;;;;;;1999.90;999.90;;;11.30;99.90;;;;;;5092597;28;20818;-70
2023/04/01 03:27:07;;;;;;;1999.90;999.90;;;11.10;99.90;;;;;;5092816;28;20405;-70
2023/04/01 03:29:33;;;;;;;1999.90;999.90;;;11.10;99.90;;;;;;5085127;28;20466;-70
2023/04/01 03:32:01;;;;;;;1999.90;999.90;;;11.20;99.90;;;;;;5088062;28;20426;-70
2023/04/01 03:34:28;;;;;;;1999.90;999.90;;;11.10;99.90;;;;;;5092314;28;20888;-70
2023/04/01 03:36:55;;;;;;;1999.90;999.90;;;10.80;99.90;;;;;;5092534;28;20414;-70
2023/04/01 03:39:21;;;;;;;1999.90;999.90;;;11.00;99.90;;;;;;5080681;28;20427;-71
2023/04/01 03:41:48;;;;;;;1999.90;999.90;;;10.90;99.90;;;;;;5077934;28;20509;-70
2023/04/01 03:44:15;;;;;;;1999.90;999.90;;;10.90;99.90;;;;;;5072217;28;20412;-70
2023/04/01 03:46:42;;;;;;;1999.90;999.90;;;10.90;99.90;;;;;;5071947;28;20878;-70
2023/04/01 03:49:12;;;;;;;1999.90;999.90;;;10.90;99.90;;;;;;5079039;28;20507;-70
2023/04/01 03:51:39;;;;;;;1999.90;999.90;;;10.80;99.90;;;;;;5084548;28;20432;-70
2023/04/01 03:54:05;;;;;;;1999.90;999.90;;;11.00;99.90;;;;;;5092109;28;20517;-70
2023/04/01 03:56:32;;;;;;;1999.90;999.90;;;10.90;99.90;;;;;;5091958;28;20455;-70
2023/04/01 03:59:02;;;;;;;1999.90;999.90;;;10.90;99.90;;;;;;5089283;28;20426;-70
2023/04/01 04:01:29;;;;;;;1999.90;999.90;;;10.80;99.90;;;;;;5083450;28;20414;-70
2023/04/01 04:03:56;;;;;;;1999.90;999.90;;;10.60;99.90;;;;;;5091823;28;20425;-70
2023/04/01 04:06:29;;;;;;;1999.90;999.90;;;10.60;99.90;;;;;;5091781;28;20417;-70
2023/04/01 04:08:55;;;;;;;1999.90;999.90;;;10.70;99.90;;;;;;5082294;28;20458;-68
2023/04/01 04:11:23;;;;;;;1999.90;999.90;;;10.80;99.90;;;;;;5081870;28;20419;-70
2023/04/01 04:13:50;;;;;;;1999.90;999.90;;;10.90;99.90;;;;;;5091864;28;20413;-70
2023/04/01 04:16:17;;;;;;;1999.90;999.90;;;10.90;99.90;;;;;;5091512;28;20408;-68
2023/04/01 04:18:44;;;;;;;1999.90;999.90;;;10.80;99.90;;;;;;5084108;28;20435;-70
2023/04/01 04:21:13;;;;;;;1999.90;999.90;;;10.80;99.90;;;;;;5079544;28;20890;-70
2023/04/01 04:23:42;;;;;;;1999.90;999.90;;;11.00;99.90;;;;;;5071006;28;20502;-70
2023/04/01 04:26:10;;;;;;;1999.90;999.90;;;10.90;99.90;;;;;;5071049;28;20411;-70
2023/04/01 04:28:37;;;;;;;1999.90;999.90;;;11.10;99.90;;;;;;5069942;28;20431;-70
2023/04/01 04:31:06;;;;;;;1999.90;999.90;;;10.90;99.90;;;;;;5079304;28;20411;-70
2023/04/01 04:33:32;;;;;;;1999.90;999.90;;;10.90;99.90;;;;;;5050788;28;20930;-72
2023/04/01 04:36:00;;;;;;;1999.90;999.90;;;11.00;99.90;;;;;;5050714;28;20459;-68
2023/04/01 04:38:27;;;;;;;1999.90;999.90;;;11.00;99.90;;;;;;5052951;28;20471;-70
2023/04/01 04:40:55;;;;;;;1999.90;999.90;;;10.90;99.90;;;;;;5078537;28;20561;-70
2023/04/01 04:43:22;;;;;;;1999.90;999.90;;;11.00;99.90;;;;;;5089429;28;20941;-70
2023/04/01 04:45:48;;;;;;;1999.90;999.90;;;10.80;99.90;;;;;;5090869;28;20436;-69
2023/04/01 04:48:18;;;;;;;1999.90;999.90;;;10.80;99.90;;;;;;5088939;28;20418;-72
2023/04/01 04:50:45;;;;;;;1999.90;999.90;;;10.70;99.90;;;;;;5072246;28;20885;-70
2023/04/01 04:53:12;;;;;;;1999.90;999.90;;;10.40;99.90;;;;;;5087750;28;20838;-70
2023/04/01 04:55:43;;;;;;;1999.90;999.90;;;10.60;99.90;;;;;;5090723;28;20443;-70
2023/04/01 04:58:11;;;;;;;1999.90;999.90;;;10.60;99.90;;;;;;5090681;28;20418;-69
2023/04/01 05:00:38;;;;;;;1999.90;999.90;;;10.60;99.90;;;;;;5078049;28;20420;-70
2023/04/01 05:03:04;;;;;;;1999.90;999.90;;;10.80;99.90;;;;;;5086654;28;20436;-70
2023/04/01 05:05:31;;;;;;;1999.90;999.90;;;10.70;99.90;;;;;;5075085;28;20469;-70
2023/04/01 05:07:58;;;;;;;1999.90;999.90;;;10.60;99.90;;;;;;5070101;28;20881;-70
2023/04/01 05:10:25;;;;;;;1999.90;999.90;;;10.60;99.90;;;;;;5076327;28;20468;-70
2023/04/01 05:12:51;;;;;;;1999.90;999.90;;;10.80;99.90;;;;;;5081614;28;20863;-71
2023/04/01 05:15:19;;;;;;;1999.90;999.90;;;10.80;99.90;;;;;;5068474;28;20409;-69
2023/04/01 05:17:46;;;;;;;1999.90;999.90;;;10.80;99.90;;;;;;5070141;28;20423;-68
2023/04/01 05:20:13;;;;;;;1999.90;999.90;;;10.90;99.90;;;;;;5073020;28;20424;-70
2023/04/01 05:22:40;;;;;;;1999.90;999.90;;;10.80;99.90;;;;;;5062440;28;20412;-70
2023/04/01 05:25:07;;;;;;;1999.90;999.90;;;10.80;99.90;;;;;;5069728;28;20449;-71
2023/04/01 05:27:34;;;;;;;1999.90;999.90;;;10.70;99.90;;;;;;5063713;28;20456;-69
2023/04/01 05:30:01;;;;;;;1999.90;999.90;;;10.80;99.90;;;;;;5103574;22;20850;-67
2023/04/01 05:32:29;;;;;;;1999.90;999.90;;;10.90;99.90;;;;;;5083661;28;20522;-69
2023/04/01 05:34:55;;;;;;;1999.90;999.90;;;10.80;99.90;;;;;;5090543;28;20899;-67
2023/04/01 05:37:23;;;;;;;1999.90;999.90;;;10.80;99.90;;;;;;5089515;28;20443;-70
2023/04/01 05:39:49;;;;;;;1999.90;999.90;;;10.80;99.90;;;;;;5076151;28;20867;-68
2023/04/01 05:42:16;;;;;;;1999.90;999.90;;;10.80;99.90;;;;;;5072985;28;20411;-67
2023/04/01 05:44:43;;;;;;;1999.90;999.90;;;10.80;99.90;;;;;;5073820;28;20510;-70
2023/04/01 05:47:09;;;;;;;1999.90;999.90;;;11.00;99.90;;;;;;5070556;28;20469;-66
2023/04/01 05:49:37;;;;;;;1999.90;999.90;;;10.90;99.90;;;;;;5081348;28;20471;-70
2023/04/01 05:52:04;;;;;;;1999.90;999.90;;;10.70;99.90;;;;;;5082100;28;20850;-70
2023/04/01 05:54:30;;;;;;;1999.90;999.90;;;10.80;99.90;;;;;;5082328;28;20428;-67
2023/04/01 05:56:57;;;;;;;1999.90;999.90;;;10.70;99.90;;;;;;5082653;28;20493;-68
2023/04/01 05:59:24;;;;;;;1999.90;999.90;;;10.70;99.90;;;;;;5082969;28;20419;-68
2023/04/01 06:01:51;;;;;;;1999.90;999.90;;;10.60;99.90;;;;;;5075097;28;20812;-69
2023/04/01 06:04:19;;;;;;;1999.90;999.90;;;10.60;99.90;;;;;;5074086;28;20412;-68
2023/04/01 06:06:47;;;;;;;1999.90;999.90;;;10.60;99.90;;;;;;5082102;28;20435;-67
2023/04/01 06:09:16;;;;;;;1999.90;999.90;;;10.80;99.90;;;;;;5082137;28;20423;-68
2023/04/01 06:11:56;;;;;;;1999.90;999.90;;;10.90;99.90;;;;;;5074158;28;20419;-68
2023/04/01 06:14:35;;;;;;;1999.90;999.90;;;11.10;99.90;;;;;;5073679;28;20917;-68
2023/04/01 06:17:18;;;;;;;1999.90;999.90;;;11.00;99.90;;;;;;5082404;28;20435;-66
2023/04/01 06:19:52;;;;;;;1999.90;999.90;;;11.00;99.90;;;;;;5087304;28;20960;-69
2023/04/01 06:22:46;;;;;;;1999.90;999.90;;;11.20;99.90;;;;;;5094129;28;20456;-69
2023/04/01 06:25:38;;;;;;;1999.90;999.90;;;11.40;99.90;;;;;;5092433;28;20564;-69
2023/04/01 06:28:53;;;;;;;1999.90;999.90;;;11.60;99.90;;;;;;5085514;28;20463;-68
2023/04/01 06:31:33;;;;;;;1999.90;999.90;;;11.80;99.90;;;;;;4991952;28;20410;-69
2023/04/01 06:34:18;;;;;;;1999.90;999.90;;;12.10;99.90;;;;;;5066542;28;20791;-68
2023/04/01 06:36:57;;;;;;;1999.90;999.90;;;12.30;99.90;;;;;;5085006;28;20460;-67
2023/04/01 06:39:40;;;;;;;1999.90;999.90;;;12.30;99.90;;;;;;5074152;28;20419;-69
2023/04/01 06:42:20;;;;;;;1999.90;999.90;;;12.30;99.90;;;;;;5073620;28;20582;-68
2023/04/01 06:44:57;;;;;;;1999.90;999.90;;;12.30;99.90;;;;;;5073360;28;20416;-69
2023/04/01 06:47:32;;;;;;;1999.90;999.90;;;12.10;99.90;;;;;;5083620;28;20477;-66
2023/04/01 06:50:08;;;;;;;1999.90;999.90;;;12.20;99.90;;;;;;5077731;28;20905;-68
2023/04/01 06:52:46;;;;;;;1999.90;999.90;;;12.30;99.90;;;;;;5073328;28;20459;-69
2023/04/01 06:55:28;;;;;;;1999.90;999.90;;;12.40;99.90;;;;;;5073425;28;20848;-67
2023/04/01 06:57:58;;;;;;;1999.90;999.90;;;12.10;99.90;;;;;;5081323;28;20469;-68
2023/04/01 07:00:29;;;;;;;1999.90;999.90;;;12.30;99.90;;;;;;5092079;28;21010;-68
2023/04/01 07:03:06;;;;;;;1999.90;999.90;;;12.50;99.90;;;;;;5093056;28;20402;-69
2023/04/01 07:05:35;;;;;;;1999.90;999.90;;;12.70;99.90;;;;;;5092265;28;20508;-68
2023/04/01 07:08:04;;;;;;;1999.90;999.90;;;12.60;99.90;;;;;;5084533;28;20422;-69
2023/04/01 07:10:39;;;;;;;1999.90;999.90;;;12.60;99.90;;;;;;5072769;28;20420;-68
2023/04/01 07:13:11;;;;;;;1999.90;999.90;;;12.60;99.90;;;;;;5072757;28;20427;-68
2023/04/01 07:15:41;;;;;;;1999.90;999.90;;;12.60;99.90;;;;;;5076434;28;20459;-68
2023/04/01 07:18:16;;;;;;;1999.90;999.90;;;12.70;99.90;;;;;;5084481;28;20519;-68
2023/04/01 07:20:42;;;;;;;1999.90;999.90;;;12.90;99.90;;;;;;5072697;28;20515;-69
2023/04/01 07:23:22;;;;;;;1999.90;999.90;;;13.10;99.90;;;;;;5072564;28;20462;-68
2023/04/01 07:25:54;;;;;;;1999.90;999.90;;;12.80;99.90;;;;;;5076281;28;20504;-68
2023/04/01 07:28:22;;;;;;;1999.90;999.90;;;12.60;99.90;;;;;;5076109;28;20434;-68
2023/04/01 07:30:59;;;;;;;1999.90;999.90;;;12.40;99.90;;;;;;5078320;28;20427;-68
2023/04/01 07:33:36;;;;;;;1999.90;999.90;;;12.50;99.90;;;;;;5072591;28;20427;-69
2023/04/01 07:36:13;;;;;;;1999.90;999.90;;;12.40;99.90;;;;;;5078697;28;20430;-69
2023/04/01 07:38:53;;;;;;;1999.90;999.90;;;12.50;99.90;;;;;;5081156;28;20466;-69
2023/04/01 07:41:30;;;;;;;1999.90;999.90;;;12.50;99.90;;;;;;5072590;28;20418;-69
2023/04/01 07:44:07;;;;;;;1999.90;999.90;;;12.60;99.90;;;;;;5072155;28;20791;-72
2023/04/01 07:46:53;;;;;;;1999.90;999.90;;;12.50;99.90;;;;;;5080501;28;20845;-69
2023/04/01 07:49:27;;;;;;;1999.90;999.90;;;12.40;99.90;;;;;;5085247;28;20416;-69
2023/04/01 07:52:00;;;;;;;1999.90;999.90;;;12.50;99.90;;;;;;5081422;28;20431;-69
2023/04/01 07:54:34;;;;;;;1999.90;999.90;;;12.70;99.90;;;;;;5080206;28;20812;-69
2023/04/01 07:57:10;;;;;;;1999.90;999.90;;;12.90;99.90;;;;;;5072207;28;20415;-69
2023/04/01 07:59:45;;;;;;;1999.90;999.90;;;13.10;99.90;;;;;;5071889;28;20454;-68
2023/04/01 08:02:23;;;;;;;1999.90;999.90;;;13.10;99.90;;;;;;5077048;28;20875;-71
2023/04/01 08:05:01;;;;;;;1999.90;999.90;;;12.70;99.90;;;;;;5077955;28;20423;-69
2023/04/01 08:07:37;;;;;;;1999.90;999.90;;;12.70;99.90;;;;;;5076402;28;20436;-68
2023/04/01 08:10:12;;;;;;;1999.90;999.90;;;12.90;99.90;;;;;;5078595;28;20483;-71
2023/04/01 08:12:49;;;;;;;1999.90;999.90;;;13.10;99.90;;;;;;5086505;28;20814;-69
2023/04/01 08:15:22;;;;;;;1999.90;999.90;;;13.10;99.90;;;;;;5087657;28;20776;-69
2023/04/01 08:18:00;;;;;;;1999.90;999.90;;;13.40;99.90;;;;;;5081972;28;20419;-71
2023/04/01 08:20:35;;;;;;;1999.90;999.90;;;13.10;99.90;;;;;;5085962;28;20822;-69
2023/04/01 08:23:11;;;;;;;1999.90;999.90;;;12.50;99.90;;;;;;5071805;28;20419;-67
2023/04/01 08:25:41;;;;;;;1999.90;999.90;;;12.50;99.90;;;;;;5077131;28;20489;-69
2023/04/01 08:28:17;;;;;;;1999.90;999.90;;;12.40;99.90;;;;;;5081330;28;20467;-68
2023/04/01 08:30:48;;;;;;;1999.90;999.90;;;12.30;99.90;;;;;;5084029;28;20474;-69
2023/04/01 08:33:20;;;;;;;1999.90;999.90;;;12.40;99.90;;;;;;5083956;28;20426;-68
2023/04/01 08:35:51;;;;;;;1999.90;999.90;;;12.40;99.90;;;;;;5082967;28;20481;-69
2023/04/01 08:38:23;;;;;;;1999.90;999.90;;;12.40;99.90;;;;;;5083496;28;20433;-69
2023/04/01 08:41:27;;;;;;;1999.90;999.90;;;12.40;99.90;;;;;;5084897;28;20428;-67
2023/04/01 08:44:17;;;;;;;1999.90;999.90;;;12.50;99.90;;;;;;5084754;28;20425;-68
2023/04/01 08:47:20;;;;;;;1999.90;999.90;;;12.50;99.90;;;;;;5086689;28;20854;-69
2023/04/01 08:50:25;;;;;;;1999.90;999.90;;;12.90;99.90;;;;;;5083842;28;20439;-67
2023/04/01 08:53:01;;;;;;;1999.90;999.90;;;12.80;99.90;;;;;;5076172;28;20427;-66
2023/04/01 08:55:44;;;;;;;1999.90;999.90;;;12.80;99.90;;;;;;5081962;28;20431;-70
2023/04/01 08:58:50;;;;;;;1999.90;999.90;;;12.80;99.90;;;;;;5095158;28;20422;-71
2023/04/01 09:01:51;;;;;;;1999.90;999.90;;;12.90;99.90;;;;;;5106296;28;20850;-69
2023/04/01 09:04:26;;;;;;;1999.90;999.90;;;13.20;99.90;;;;;;5049036;28;20441;-67
2023/04/01 09:07:08;;;;;;;1999.90;999.90;;;13.30;99.90;;;;;;5086327;28;20988;-66
2023/04/01 09:09:55;;;;;;;1999.90;999.90;;;13.40;99.90;;;;;;5085434;28;20440;-69
2023/04/01 09:12:51;;;;;;;1999.90;999.90;;;13.70;99.90;;;;;;5083230;28;20425;-70
2023/04/01 09:15:48;;;;;;;1999.90;999.90;;;13.50;99.90;;;;;;5081986;28;20426;-69
2023/04/01 09:18:39;;;;;;;1999.90;999.90;;;13.70;99.90;;;;;;5082785;28;20486;-68
2023/04/01 09:21:25;;;;;;;1999.90;999.90;;;13.90;99.90;;;;;;5081984;28;20434;-68
2023/04/01 09:24:30;;;;;;;1999.90;999.90;;;14.10;99.90;;;;;;5083752;28;20432;-67
2023/04/01 09:27:05;;;;;;;1999.90;999.90;;;14.30;99.90;;;;;;5081124;28;20508;-68
2023/04/01 09:29:55;;;;;;;1999.90;999.90;;;14.30;99.90;;;;;;5082699;28;20438;-69
2023/04/01 09:32:41;;;;;;;1999.90;999.90;;;14.40;99.90;;;;;;5083625;28;20425;-70
2023/04/01 09:35:21;;;;;;;1999.90;999.90;;;14.50;99.90;;;;;;5080255;28;20452;-70
2023/04/01 09:37:55;;;;;;;1999.90;999.90;;;14.50;99.90;;;;;;5083960;28;20930;-69
2023/04/01 09:40:33;;;;;;;1999.90;999.90;;;14.50;99.90;;;;;;5086776;28;20433;-69
2023/04/01 09:43:17;;;;;;;1999.90;999.90;;;14.10;99.90;;;;;;5093929;28;20830;-71
2023/04/01 09:45:52;;;;;;;1999.90;999.90;;;14.30;99.90;;;;;;5094660;28;20516;-73
2023/04/01 09:48:32;;;;;;;1999.90;999.90;;;14.30;99.90;;;;;;5093506;28;20459;-70
2023/04/01 09:51:11;;;;;;;1999.90;999.90;;;14.50;99.90;;;;;;5092722;28;20414;-69
2023/04/01 09:53:53;;;;;;;1999.90;999.90;;;14.20;99.90;;;;;;5090691;28;20433;-69
2023/04/01 09:56:58;;;;;;;1999.90;999.90;;;13.90;99.90;;;;;;5081538;28;20504;-69
2023/04/01 09:59:46;;;;;;;1999.90;999.90;;;13.80;99.90;;;;;;5072680;28;20798;-70
2023/04/01 10:02:51;;;;;;;1999.90;999.90;;;13.90;99.90;;;;;;5070964;28;20415;-69
2023/04/01 10:06:06;;;;;;;1999.90;999.90;;;14.10;99.90;;;;;;5076798;28;20447;-69
2023/04/01 10:09:18;;;;;;;1999.90;999.90;;;14.30;99.90;;;;;;5006849;28;20437;-70
2023/04/01 10:12:18;;;;;;;1999.90;999.90;;;14.40;99.90;;;;;;5009167;28;20453;-70
2023/04/01 10:15:29;;;;;;;1999.90;999.90;;;14.30;99.90;;;;;;5072963;28;20652;-70
2023/04/01 10:18:23;;;;;;;1999.90;999.90;;;14.50;99.90;;;;;;5079373;28;20430;-70
2023/04/01 10:21:25;;;;;;;1999.90;999.90;;;14.40;99.90;;;;;;5070824;28;20937;-71
2023/04/01 10:24:34;;;;;;;1999.90;999.90;;;14.50;99.90;;;;;;5032421;28;20516;-72
2023/04/01 10:27:15;;;;;;;1999.90;999.90;;;14.70;99.90;;;;;;5076729;28;20421;-70
2023/04/01 10:30:32;;;;;;;1999.90;999.90;;;14.80;99.90;;;;;;5070493;28;20427;-71
2023/04/01 10:33:48;;;;;;;1999.90;999.90;;;15.00;99.90;;;;;;5070943;28;20494;-70
2023/04/01 10:36:48;;;;;;;1999.90;999.90;;;15.00;99.90;;;;;;5077009;28;20844;-69
2023/04/01 10:39:52;;;;;;;1999.90;999.90;;;14.80;99.90;;;;;;5081380;28;20435;-69
2023/04/01 10:42:54;;;;;;;1999.90;999.90;;;14.70;99.90;;;;;;5074303;28;20412;-69
2023/04/01 10:46:11;;;;;;;1999.90;999.90;;;14.90;99.90;;;;;;5078702;28;20491;-70
2023/04/01 10:49:23;;;;;;;1999.90;999.90;;;14.60;99.90;;;;;;4982853;28;20416;-69
2023/04/01 10:52:21;;;;;;;1999.90;999.90;;;14.70;99.90;;;;;;5007854;28;20475;-69
2023/04/01 10:54:53;;;;;;;1999.90;999.90;;;14.70;99.90;;;;;;5083769;28;20435;-70
2023/04/01 10:57:58;;;;;;;1999.90;999.90;;;14.70;99.90;;;;;;5076733;28;20467;-71
2023/04/01 11:00:46;;;;;;;1999.90;999.90;;;14.50;99.90;;;;;;5083037;28;20418;-69
2023/04/01 11:04:07;;;;;;;1999.90;999.90;;;14.50;99.90;;;;;;5073790;28;20415;-70
2023/04/01 11:07:14;;;;;;;1999.90;999.90;;;14.60;99.90;;;;;;5074000;28;20403;-69
2023/04/01 11:10:27;;;;;;;1999.90;999.90;;;14.70;99.90;;;;;;5081914;28;20513;-70
2023/04/01 11:13:32;;;;;;;1999.90;999.90;;;15.00;99.90;;;;;;5073503;28;20848;-67
2023/04/01 11:16:23;;;;;;;1999.90;999.90;;;14.80;99.90;;;;;;5039077;28;20893;-68
2023/04/01 11:19:23;;;;;;;1999.90;999.90;;;14.70;99.90;;;;;;5077787;28;20477;-69
2023/04/01 11:22:32;;;;;;;1999.90;999.90;;;14.50;99.90;;;;;;5085719;28;20501;-69
2023/04/01 11:25:30;;;;;;;1999.90;999.90;;;14.60;99.90;;;;;;5077431;28;20410;-69
2023/04/01 11:28:20;;;;;;;1999.90;999.90;;;14.70;99.90;;;;;;5083656;28;20478;-69
2023/04/01 11:31:04;;;;;;;1999.90;999.90;;;14.90;99.90;;;;;;5102970;22;20911;-69
2023/04/01 11:33:35;;;;;;;1999.90;999.90;;;15.00;99.90;;;;;;5085507;28;20406;-67
2023/04/01 11:36:20;;;;;;;1999.90;999.90;;;15.10;99.90;;;;;;5092517;28;20457;-69
2023/04/01 11:38:59;;;;;;;1999.90;999.90;;;15.00;99.90;;;;;;5080488;28;20423;-71
2023/04/01 11:41:37;;;;;;;1999.90;999.90;;;14.90;99.90;;;;;;5072121;28;20415;-68
2023/04/01 11:44:17;;;;;;;1999.90;999.90;;;14.80;99.90;;;;;;5072116;28;20469;-71
2023/04/01 11:46:52;;;;;;;1999.90;999.90;;;14.60;99.90;;;;;;5075096;28;20589;-67
2023/04/01 11:49:31;;;;;;;1999.90;999.90;;;14.70;99.90;;;;;;5076172;28;20454;-70
2023/04/01 11:52:18;;;;;;;1999.90;999.90;;;14.70;99.90;;;;;;5085401;28;20497;-66
2023/04/01 11:55:25;;;;;;;1999.90;999.90;;;15.10;99.90;;;;;;5091898;28;20837;-69
2023/04/01 11:58:13;;;;;;;1999.90;999.90;;;15.20;99.90;;;;;;5086367;28;20836;-69
2023/04/01 12:00:58;;;;;;;1999.90;999.90;;;15.40;99.90;;;;;;5082681;28;20410;-68
2023/04/01 12:04:07;;;;;;;1999.90;999.90;;;15.50;99.90;;;;;;5092185;28;20420;-68
2023/04/01 12:06:41;;;;;;;1999.90;999.90;;;15.40;99.90;;;;;;5007984;28;20420;-69
2023/04/01 12:09:17;;;;;;;1999.90;999.90;;;15.10;99.90;;;;;;5068231;28;20473;-69
2023/04/01 12:11:54;;;;;;;1999.90;999.90;;;15.00;99.90;;;;;;5071467;28;20423;-68
2023/04/01 12:14:28;;;;;;;1999.90;999.90;;;15.10;99.90;;;;;;5071359;28;20423;-72
2023/04/01 12:17:02;;;;;;;1999.90;999.90;;;14.70;99.90;;;;;;5075758;28;20443;-71
2023/04/01 12:19:40;;;;;;;1999.90;999.90;;;14.40;99.90;;;;;;5082059;28;20449;-73
2023/04/01 12:22:24;;;;;;;1999.90;999.90;;;14.00;99.90;;;;;;5071551;28;20424;-71
2023/04/01 12:24:57;;;;;;;1999.90;999.90;;;13.80;99.90;;;;;;5071276;28;20498;-71
2023/04/01 12:27:59;;;;;;;1999.90;999.90;;;13.60;99.90;;;;;;5078841;28;20433;-71
2023/04/01 12:30:50;;;;;;;1999.90;999.90;;;13.70;99.90;;;;;;5076738;28;20496;-71
2023/04/01 12:33:35;;;;;;;1999.90;999.90;;;14.10;99.90;;;;;;5071206;28;20433;-72
2023/04/01 12:36:14;;;;;;;1999.90;999.90;;;13.90;99.90;;;;;;5070946;28;20427;-71
2023/04/01 12:38:56;;;;;;;1999.90;999.90;;;13.90;99.90;;;;;;5079946;28;20483;-72
2023/04/01 12:41:33;;;;;;;1999.90;999.90;;;13.90;99.90;;;;;;5082465;28;20425;-71
2023/04/01 12:44:35;;;;;;;1999.90;999.90;;;14.00;99.90;;;;;;5071082;28;20511;-71
2023/04/01 12:47:28;;;;;;;1999.90;999.90;;;14.30;99.90;;;;;;5075398;28;20426;-70